Terminal Aerodrome Forecast
Issued by NWS

Home | Current Version | Previous Version | Text Only | Print | Product List | Glossary On
Versions: 1 2 3 4 5 6 7 8 9 10 11 12 13 14 15 16
000
FTUS44 KCRP 032328
TAFLRD
TAF
KLRD 032328Z 0400/0424 13011KT P6SM FEW050
     FM041000 14007KT P6SM SCT006
      TEMPO 0410/0414 BKN006
     FM041400 15009KT P6SM SCT012
     FM041600 14011KT P6SM SCT030
     FM041900 12013KT P6SM FEW060=

USA.gov is the U.S. government's official web portal to all federal, state and local government web resources and services.